Time;durP1;ratioP1;P1;durP2;ratioP2;P2;SDS_P1;SDS_P2;PMS_P1;PMS_P2;Temp;Humidity;BMP_temperature;BMP_pressure;BME280_temperature;BME280_humidity;BME280_pressure;Samples;Min_cycle;Max_cycle;Signal;HPM_P1;HPM_P2
2023/08/28 00:00:59;;;;;;;5.83;4.73;;;;;;;23.08;65.52;96689.34;5089323;28;20601;-76
2023/08/28 00:03:27;;;;;;;6.73;4.23;;;;;;;23.07;66.07;96698.22;5070545;28;20194;-77
2023/08/28 00:05:54;;;;;;;6.03;4.37;;;;;;;22.62;67.25;96686.03;5070821;28;20615;-75
2023/08/28 00:08:21;;;;;;;8.40;4.73;;;;;;;22.60;67.40;96697.72;5088880;28;20186;-74
2023/08/28 00:10:52;;;;;;;4.97;4.17;;;;;;;22.46;67.74;96682.38;5088337;28;20257;-78
2023/08/28 00:13:21;;;;;;;6.40;4.60;;;;;;;22.54;67.62;96696.50;5088670;28;20202;-77
2023/08/28 00:15:49;;;;;;;6.13;4.33;;;;;;;22.26;68.60;96694.88;5088418;28;20700;-78
2023/08/28 00:18:16;;;;;;;5.43;4.43;;;;;;;22.25;68.78;96695.88;5071409;28;20192;-75
2023/08/28 00:20:43;;;;;;;6.83;4.50;;;;;;;22.10;68.98;96701.81;5087727;28;20243;-75
2023/08/28 00:23:10;;;;;;;5.00;4.50;;;;;;;21.94;69.94;96691.94;5088650;28;20194;-75
2023/08/28 00:25:37;;;;;;;6.30;4.83;;;;;;;22.17;69.13;96693.16;5053574;28;20212;-75
2023/08/28 00:28:05;;;;;;;10.27;4.93;;;;;;;22.35;68.71;96701.06;5088602;28;20246;-77
2023/08/28 00:30:32;;;;;;;7.47;4.93;;;;;;;22.14;69.45;96689.97;5053870;28;20179;-79
2023/08/28 00:33:00;;;;;;;6.10;4.97;;;;;;;22.23;69.03;96689.09;5087979;28;20667;-79
2023/08/28 00:35:27;;;;;;;6.63;4.83;;;;;;;22.42;68.48;96689.75;5070260;28;20304;-76
2023/08/28 00:37:55;;;;;;;6.90;5.00;;;;;;;22.74;67.13;96683.97;5052610;28;20208;-74
2023/08/28 00:40:22;;;;;;;8.20;4.97;;;;;;;22.65;67.68;96684.88;5066531;28;20229;-77
2023/08/28 00:42:50;;;;;;;6.90;4.53;;;;;;;22.84;66.65;96679.41;5066229;28;20190;-80
2023/08/28 00:45:17;;;;;;;7.17;4.87;;;;;;;22.48;67.57;96639.00;5066700;28;20576;-77
2023/08/28 00:47:46;;;;;;;6.23;4.77;;;;;;;22.90;66.49;96667.41;5066673;28;20195;-77
2023/08/28 00:50:14;;;;;;;5.13;4.60;;;;;;;22.63;67.12;96663.06;5065961;28;20921;-76
2023/08/28 00:52:42;;;;;;;8.20;5.00;;;;;;;22.59;67.85;96669.66;5066761;28;20185;-76
2023/08/28 00:55:10;;;;;;;6.20;4.90;;;;;;;22.50;68.06;96671.34;5049594;28;20226;-77
2023/08/28 00:57:38;;;;;;;8.53;5.33;;;;;;;21.92;70.21;96671.94;5067892;28;20193;-80
2023/08/28 01:00:08;;;;;;;6.90;5.70;;;;;;;21.88;70.62;96674.06;5049994;28;20255;-77
2023/08/28 01:02:35;;;;;;;6.50;5.23;;;;;;;21.99;70.45;96673.84;5067408;28;20259;-75
2023/08/28 01:05:04;;;;;;;7.13;5.10;;;;;;;21.99;70.36;96675.66;5067346;28;20224;-75
2023/08/28 01:07:47;;;;;;;6.67;4.97;;;;;;;21.98;70.75;96677.47;5065726;28;20271;-77
2023/08/28 01:10:44;;;;;;;6.93;5.20;;;;;;;22.12;70.12;96674.31;5066545;28;20279;-78
2023/08/28 01:13:15;;;;;;;6.60;4.97;;;;;;;22.11;70.21;96667.41;5064023;28;20204;-77
2023/08/28 01:15:44;;;;;;;8.00;6.43;;;;;;;21.92;71.48;96669.31;5067184;28;20232;-80
2023/08/28 01:18:12;;;;;;;7.20;5.20;;;;;;;22.23;70.68;96670.63;5067838;28;20193;-76
2023/08/28 01:20:42;;;;;;;7.20;5.13;;;;;;;22.52;69.18;96674.66;5065350;28;20197;-75
2023/08/28 01:23:23;;;;;;;8.13;5.20;;;;;;;22.80;67.73;96679.88;5066126;28;20699;-77
2023/08/28 01:25:51;;;;;;;6.80;5.47;;;;;;;23.03;66.34;96670.47;5065622;28;20195;-77
2023/08/28 01:28:19;;;;;;;7.97;4.77;;;;;;;23.00;66.56;96665.50;5065744;28;20194;-75
2023/08/28 01:30:48;;;;;;;9.40;5.20;;;;;;;23.19;66.14;96670.56;5065860;28;20781;-75
2023/08/28 01:33:17;;;;;;;11.17;5.10;;;;;;;23.21;64.72;96650.09;5065168;28;20188;-76
2023/08/28 01:36:10;;;;;;;6.27;5.00;;;;;;;23.20;65.18;96661.66;5065883;28;20259;-77
2023/08/28 01:38:47;;;;;;;6.63;4.27;;;;;;;23.25;64.10;96649.63;5055852;28;20515;-75
2023/08/28 01:41:18;;;;;;;6.80;4.27;;;;;;;23.16;64.57;96650.56;5065477;28;20283;-75
2023/08/28 01:43:52;;;;;;;6.37;4.60;;;;;;;22.23;66.83;96637.16;5065241;28;20662;-75
2023/08/28 01:46:20;;;;;;;5.13;4.60;;;;;;;22.32;66.78;96636.25;5048115;28;20292;-76
2023/08/28 01:48:53;;;;;;;7.00;5.63;;;;;;;22.35;67.10;96635.94;5067125;28;20208;-79
2023/08/28 01:51:23;;;;;;;7.33;4.93;;;;;;;22.63;66.15;96631.41;5065182;28;20182;-83
2023/08/28 01:53:53;;;;;;;8.20;5.67;;;;;;;22.63;65.91;96626.94;5066887;28;20192;-76
2023/08/28 01:56:24;;;;;;;8.20;5.90;;;;;;;22.41;66.32;96608.09;5066575;28;20267;-80
2023/08/28 01:58:57;;;;;;;7.17;5.97;;;;;;;22.55;66.54;96626.88;5065183;28;20211;-81
2023/08/28 02:01:26;;;;;;;7.00;5.97;;;;;;;22.52;66.63;96626.34;5065616;28;20198;-78
2023/08/28 02:03:55;;;;;;;8.43;6.17;;;;;;;22.62;65.78;96630.59;5064403;28;20190;-81
2023/08/28 02:06:23;;;;;;;10.03;6.20;;;;;;;22.33;65.91;96622.06;5066033;28;20283;-81
2023/08/28 02:08:51;;;;;;;8.77;6.10;;;;;;;22.19;66.99;96627.91;5066242;28;20233;-83
2023/08/28 02:11:18;;;;;;;8.53;5.90;;;;;;;22.00;67.04;96621.94;5065423;28;20200;-81
2023/08/28 02:13:47;;;;;;;7.10;6.17;;;;;;;21.60;68.63;96622.28;5065308;28;20187;-81
2023/08/28 02:16:19;;;;;;;10.57;6.60;;;;;;;21.29;70.09;96623.59;5065184;28;20739;-81
2023/08/28 02:18:48;;;;;;;8.10;6.07;;;;;;;21.01;71.17;96622.69;5065359;28;20297;-77
2023/08/28 02:21:16;;;;;;;7.20;6.50;;;;;;;20.90;71.54;96622.84;5064804;28;20218;-80
2023/08/28 02:23:44;;;;;;;10.03;5.90;;;;;;;20.78;71.32;96605.59;5049237;28;20731;-82
2023/08/28 02:26:12;;;;;;;8.93;6.03;;;;;;;20.81;71.88;96621.91;5066433;28;20182;-81
2023/08/28 02:28:40;;;;;;;7.13;6.03;;;;;;;20.84;72.33;96621.63;5065312;28;20240;-78
2023/08/28 02:31:07;;;;;;;7.63;6.20;;;;;;;20.91;72.38;96621.91;5048122;28;20263;-82
2023/08/28 02:33:34;;;;;;;8.20;6.00;;;;;;;20.69;73.02;96620.44;5064891;28;20277;-80
2023/08/28 02:36:03;;;;;;;6.70;6.00;;;;;;;20.65;73.34;96615.63;5066678;28;20214;-81
2023/08/28 02:38:30;;;;;;;10.30;6.50;;;;;;;20.38;74.38;96616.31;5064470;28;20577;-77
2023/08/28 02:41:04;;;;;;;10.83;6.43;;;;;;;20.40;74.76;96622.31;5065356;28;20308;-79
2023/08/28 02:43:33;;;;;;;7.87;6.20;;;;;;;20.38;74.67;96624.22;5065885;28;20200;-77
2023/08/28 02:46:01;;;;;;;8.80;6.03;;;;;;;20.23;74.89;96602.81;5066943;28;20193;-82
2023/08/28 02:48:28;;;;;;;10.47;6.60;;;;;;;20.71;73.45;96615.03;5066564;28;20695;-78
2023/08/28 02:50:57;;;;;;;8.97;5.70;;;;;;;21.05;71.96;96621.47;5065162;28;20696;-76
2023/08/28 02:53:25;;;;;;;8.20;5.87;;;;;;;21.20;71.38;96635.81;5066462;28;20197;-74
2023/08/28 02:56:17;;;;;;;8.83;5.53;;;;;;;20.95;71.87;96632.00;5064096;28;21031;-74
2023/08/28 02:58:45;;;;;;;9.27;6.30;;;;;;;20.84;72.36;96613.75;5064652;28;20264;-74
2023/08/28 03:01:13;;;;;;;9.67;5.97;;;;;;;20.95;72.25;96628.53;5048011;28;20208;-75
2023/08/28 03:03:40;;;;;;;9.57;5.60;;;;;;;20.75;72.52;96624.31;5064369;28;20189;-75
2023/08/28 03:06:07;;;;;;;8.10;6.73;;;;;;;21.01;71.78;96620.91;5064764;28;20635;-76
2023/08/28 03:08:34;;;;;;;9.13;6.60;;;;;;;20.87;71.90;96624.00;5064083;28;20653;-76
2023/08/28 03:11:03;;;;;;;10.10;5.57;;;;;;;20.75;72.22;96624.31;5048502;28;20285;-75
2023/08/28 03:13:30;;;;;;;7.30;6.33;;;;;;;20.38;73.23;96621.59;5064091;28;20196;-76
2023/08/28 03:15:59;;;;;;;8.93;5.97;;;;;;;20.45;73.42;96621.84;5062022;28;20228;-74
2023/08/28 03:18:26;;;;;;;8.77;5.83;;;;;;;20.84;72.13;96626.91;5053015;28;20601;-75
2023/08/28 03:20:54;;;;;;;8.90;6.50;;;;;;;21.08;70.88;96628.25;5048337;28;20190;-75
2023/08/28 03:23:21;;;;;;;9.07;7.20;;;;;;;21.16;70.26;96629.19;5051945;28;20297;-77
2023/08/28 03:25:49;;;;;;;8.73;6.53;;;;;;;20.95;70.76;96626.75;5057750;28;20244;-74
2023/08/28 03:28:16;;;;;;;8.67;6.73;;;;;;;20.92;70.81;96626.19;5049884;28;20198;-75
2023/08/28 03:30:43;;;;;;;11.90;7.33;;;;;;;20.90;71.24;96628.97;5066546;28;20195;-76
2023/08/28 03:33:11;;;;;;;11.00;7.20;;;;;;;20.82;71.18;96626.22;5068133;28;20185;-74
2023/08/28 03:35:38;;;;;;;12.03;7.60;;;;;;;20.71;71.59;96623.75;5067628;28;20583;-77
2023/08/28 03:38:06;;;;;;;10.53;7.43;;;;;;;20.29;73.65;96625.06;5066689;28;20303;-75
2023/08/28 03:40:38;;;;;;;12.07;8.60;;;;;;;20.02;74.87;96622.28;5067453;28;20240;-76
2023/08/28 03:43:05;;;;;;;13.63;8.70;;;;;;;20.07;75.14;96613.00;5067152;28;20332;-75
2023/08/28 03:45:33;;;;;;;14.87;9.57;;;;;;;20.40;73.80;96630.19;5068164;28;20228;-75
2023/08/28 03:48:00;;;;;;;15.57;9.73;;;;;;;20.04;75.17;96615.91;5066241;28;20684;-75
2023/08/28 03:50:30;;;;;;;14.33;8.73;;;;;;;20.16;74.72;96627.09;5067561;28;20638;-78
2023/08/28 03:52:58;;;;;;;11.93;9.07;;;;;;;20.31;74.43;96631.03;5050257;28;20271;-78
2023/08/28 03:55:29;;;;;;;10.90;8.67;;;;;;;20.19;74.38;96629.47;5050600;28;20707;-78
2023/08/28 03:58:03;;;;;;;9.23;7.13;;;;;;;19.99;75.40;96636.50;5067621;28;20220;-75
2023/08/28 04:00:53;;;;;;;10.47;8.33;;;;;;;19.81;75.96;96627.66;5067428;28;20209;-76
2023/08/28 04:03:21;;;;;;;14.47;9.47;;;;;;;19.60;76.57;96619.03;5068864;28;20277;-75
2023/08/28 04:05:53;;;;;;;11.47;8.10;;;;;;;19.96;75.80;96630.72;5067317;28;20204;-77
2023/08/28 04:08:21;;;;;;;11.80;9.13;;;;;;;20.05;75.16;96620.19;5050274;28;20207;-75
2023/08/28 04:10:48;;;;;;;10.13;8.83;;;;;;;20.49;73.81;96616.19;5068779;28;20215;-76
2023/08/28 04:13:16;;;;;;;9.50;7.70;;;;;;;20.64;73.17;96616.56;5061445;28;20284;-76
2023/08/28 04:15:44;;;;;;;8.20;7.40;;;;;;;20.70;73.00;96622.09;5051084;28;20291;-74
2023/08/28 04:18:15;;;;;;;9.27;6.80;;;;;;;21.12;71.47;96612.03;5046279;28;20195;-76
2023/08/28 04:20:42;;;;;;;12.30;7.27;;;;;;;21.17;71.00;96619.47;5047148;28;20187;-74
2023/08/28 04:23:10;;;;;;;11.63;6.60;;;;;;;21.22;70.76;96628.63;5050978;28;20196;-75
2023/08/28 04:25:38;;;;;;;12.67;7.67;;;;;;;21.75;69.05;96636.63;5030214;28;20195;-78
2023/08/28 04:28:05;;;;;;;12.10;7.40;;;;;;;21.88;68.65;96632.69;5030050;28;20637;-76
2023/08/28 04:30:33;;;;;;;6.97;6.17;;;;;;;21.92;67.26;96638.50;5046225;28;20624;-76
2023/08/28 04:33:00;;;;;;;7.17;5.90;;;;;;;21.97;67.62;96641.50;5051049;28;20196;-75
2023/08/28 04:35:28;;;;;;;11.70;7.47;;;;;;;22.04;67.95;96636.47;5047182;28;20199;-75
2023/08/28 04:37:55;;;;;;;10.83;7.00;;;;;;;21.66;69.22;96637.50;5046486;28;20281;-77
2023/08/28 04:40:22;;;;;;;7.77;6.80;;;;;;;21.57;69.78;96638.41;5055842;28;20320;-78
2023/08/28 04:42:54;;;;;;;9.17;7.03;;;;;;;21.62;69.75;96641.41;5049570;28;20180;-75
2023/08/28 04:45:23;;;;;;;8.00;6.50;;;;;;;21.40;70.88;96634.75;5033099;28;20199;-78
2023/08/28 04:47:50;;;;;;;10.63;6.40;;;;;;;21.42;71.06;96631.97;5049341;28;20811;-80
2023/08/28 04:50:18;;;;;;;7.73;5.77;;;;;;;21.83;70.24;96632.31;5049780;28;20651;-78
2023/08/28 04:52:46;;;;;;;10.73;6.73;;;;;;;22.41;68.95;96629.22;5032401;28;20906;-75
2023/08/28 04:55:13;;;;;;;13.77;6.87;;;;;;;22.84;67.02;96617.84;5049336;28;20279;-76
2023/08/28 04:57:42;;;;;;;8.53;6.17;;;;;;;22.97;66.59;96634.94;5066890;28;20276;-75
2023/08/28 05:00:10;;;;;;;10.70;6.10;;;;;;;23.09;66.17;96638.97;5048905;28;20202;-76
2023/08/28 05:02:41;;;;;;;10.80;6.13;;;;;;;23.35;65.51;96644.25;5049124;28;20201;-77
2023/08/28 05:05:09;;;;;;;7.30;5.60;;;;;;;23.74;64.07;96644.56;5048593;28;20241;-81
2023/08/28 05:07:36;;;;;;;10.07;5.73;;;;;;;23.93;64.28;96642.47;5032691;28;20602;-74
2023/08/28 05:10:03;;;;;;;8.60;6.40;;;;;;;23.93;62.94;96637.19;5066330;28;20205;-77
2023/08/28 05:12:30;;;;;;;7.90;6.00;;;;;;;22.86;66.74;96645.75;5049586;28;20195;-76
2023/08/28 05:15:01;;;;;;;9.80;5.73;;;;;;;22.62;67.53;96649.06;5049421;28;20203;-78
2023/08/28 05:17:30;;;;;;;8.43;5.97;;;;;;;23.22;66.00;96649.13;5067136;28;20307;-78
2023/08/28 05:19:58;;;;;;;10.93;6.87;;;;;;;23.85;64.36;96647.75;5033084;28;20245;-80
2023/08/28 05:22:26;;;;;;;6.97;6.00;;;;;;;24.07;63.77;96641.84;5031473;28;20594;-82
2023/08/28 05:24:53;;;;;;;9.03;5.83;;;;;;;24.27;62.10;96629.16;5032035;28;20207;-76
2023/08/28 05:27:21;;;;;;;9.60;5.87;;;;;;;24.24;62.73;96646.19;5050808;28;20239;-79
2023/08/28 05:29:51;;;;;;;7.77;5.93;;;;;;;24.07;62.68;96602.16;5069345;28;20714;-79
2023/08/28 05:32:19;;;;;;;7.93;6.30;;;;;;;24.06;62.97;96637.56;5052631;28;20206;-80
2023/08/28 05:34:47;;;;;;;9.37;6.07;;;;;;;23.45;64.77;96647.63;5067767;28;20213;-77
2023/08/28 05:37:17;;;;;;;7.70;6.03;;;;;;;23.15;65.63;96589.94;5069007;28;20752;-75
2023/08/28 05:39:45;;;;;;;8.33;6.60;;;;;;;23.16;66.23;96642.63;5067754;28;20310;-77
2023/08/28 05:42:13;;;;;;;7.30;5.90;;;;;;;23.39;65.27;96641.13;5069242;28;20289;-79
2023/08/28 05:44:41;;;;;;;9.10;6.23;;;;;;;23.47;64.57;96624.50;5069773;28;20251;-82
2023/08/28 05:47:09;;;;;;;11.87;6.47;;;;;;;23.73;64.60;96635.81;5057270;28;20269;-79
2023/08/28 05:49:36;;;;;;;12.37;7.17;;;;;;;24.27;62.99;96641.56;5054717;28;20278;-81
2023/08/28 05:52:05;;;;;;;14.17;8.00;;;;;;;24.53;62.65;96644.88;5043536;28;20202;-79
2023/08/28 05:54:32;;;;;;;12.77;6.37;;;;;;;24.92;60.60;96624.69;5075594;28;20343;-78
2023/08/28 05:56:59;;;;;;;12.67;6.40;;;;;;;25.23;59.47;96649.47;5087050;28;20945;-79
2023/08/28 05:59:27;;;;;;;16.77;6.70;;;;;;;25.50;59.15;96649.06;5052487;28;21215;-80
2023/08/28 06:01:54;;;;;;;23.57;9.73;;;;;;;25.65;58.09;96655.31;5086277;28;20192;-78
2023/08/28 06:04:22;;;;;;;12.17;6.93;;;;;;;25.43;57.95;96645.44;5052085;28;20199;-82
2023/08/28 06:06:50;;;;;;;7.33;6.60;;;;;;;24.79;59.18;96611.16;5051410;28;20665;-74
2023/08/28 06:09:21;;;;;;;11.03;6.67;;;;;;;25.11;59.61;96661.41;5067671;28;20180;-80
2023/08/28 06:11:51;;;;;;;15.27;7.67;;;;;;;25.35;58.46;96655.25;5051890;28;20270;-75
2023/08/28 06:14:18;;;;;;;13.57;8.23;;;;;;;25.32;59.93;96658.22;5068327;28;20195;-78
2023/08/28 06:16:46;;;;;;;11.40;7.23;;;;;;;25.55;59.05;96675.91;5069698;28;20307;-81
2023/08/28 06:19:13;;;;;;;15.43;10.80;;;;;;;25.42;58.26;96657.06;5086287;28;20245;-78
2023/08/28 06:21:44;;;;;;;17.73;10.90;;;;;;;25.30;58.95;96676.13;5085832;28;20665;-78
2023/08/28 06:24:13;;;;;;;18.97;9.80;;;;;;;24.80;60.70;96673.72;5067511;28;20185;-78
2023/08/28 06:26:44;;;;;;;12.43;8.20;;;;;;;25.15;59.56;96673.34;5035015;28;20591;-83
2023/08/28 06:29:12;;;;;;;12.30;7.80;;;;;;;25.58;58.71;96664.94;5085904;28;20242;-78
2023/08/28 06:31:44;;;;;;;12.10;8.73;;;;;;;25.72;57.36;96684.63;5051220;28;20192;-79
2023/08/28 06:34:14;;;;;;;9.53;6.97;;;;;;;25.61;57.87;96690.31;5051964;28;20206;-77
2023/08/28 06:36:45;;;;;;;10.17;6.73;;;;;;;25.67;57.83;96671.06;5085760;28;20222;-82
2023/08/28 06:39:12;;;;;;;12.10;8.43;;;;;;;25.00;59.13;96612.25;5068315;28;20636;-77
2023/08/28 06:41:46;;;;;;;10.17;5.97;;;;;;;24.70;60.22;96646.53;5067272;28;20239;-78
2023/08/28 06:44:13;;;;;;;12.20;7.60;;;;;;;24.99;60.89;96668.06;5067518;28;20197;-78
2023/08/28 06:46:41;;;;;;;9.07;5.97;;;;;;;25.57;59.18;96667.78;5085717;28;20239;-78
2023/08/28 06:49:08;;;;;;;8.97;5.83;;;;;;;25.95;58.03;96666.09;5050595;28;20683;-77
2023/08/28 06:51:37;;;;;;;9.57;6.13;;;;;;;26.24;56.38;96669.78;5089299;28;20196;-77
2023/08/28 06:54:06;;;;;;;8.00;5.37;;;;;;;26.14;56.29;96668.34;5094817;28;20193;-77
2023/08/28 06:56:34;;;;;;;8.70;6.60;;;;;;;26.23;55.60;96664.66;5075852;28;20199;-80
2023/08/28 06:59:03;;;;;;;7.57;4.70;;;;;;;26.07;54.72;96662.91;5055738;28;20195;-78
2023/08/28 07:01:32;;;;;;;8.57;6.53;;;;;;;26.16;54.42;96656.56;5090239;28;20192;-82
2023/08/28 07:04:00;;;;;;;5.60;4.03;;;;;;;26.27;53.08;96656.16;5072234;28;20200;-78
2023/08/28 07:06:29;;;;;;;6.80;4.13;;;;;;;26.41;54.25;96678.47;5092847;28;20211;-80
2023/08/28 07:08:57;;;;;;;9.73;7.10;;;;;;;26.52;54.11;96659.47;5090745;28;20189;-77
2023/08/28 07:11:33;;;;;;;10.07;7.73;;;;;;;26.69;53.13;96639.72;5071175;28;20773;-81
2023/08/28 07:14:01;;;;;;;6.30;3.77;;;;;;;26.56;53.09;96668.75;5089239;28;20283;-79
2023/08/28 07:16:28;;;;;;;7.50;4.67;;;;;;;26.72;53.89;96681.91;5089473;28;20311;-76
2023/08/28 07:18:56;;;;;;;5.37;3.77;;;;;;;26.66;50.68;96647.22;5089305;28;20204;-78
2023/08/28 07:21:23;;;;;;;6.93;4.43;;;;;;;26.67;50.22;96625.78;5089700;28;20196;-76
2023/08/28 07:23:51;;;;;;;6.53;3.77;;;;;;;26.62;50.06;96638.81;5088677;28;20280;-76
2023/08/28 07:26:19;;;;;;;8.23;4.50;;;;;;;26.70;49.89;96670.63;5071504;28;20664;-78
2023/08/28 07:28:48;;;;;;;6.73;3.83;;;;;;;26.03;51.23;96658.13;5054633;28;20200;-77
2023/08/28 07:31:15;;;;;;;4.20;3.80;;;;;;;26.31;51.28;96673.41;5089556;28;20208;-78
2023/08/28 07:33:43;;;;;;;6.60;3.83;;;;;;;25.97;52.10;96672.06;5071102;28;20180;-77
2023/08/28 07:36:11;;;;;;;10.37;4.73;;;;;;;26.77;51.20;96663.59;5088869;28;20242;-77
2023/08/28 07:38:44;;;;;;;5.67;4.23;;;;;;;26.44;50.37;96667.50;5089736;28;20212;-77
2023/08/28 07:41:11;;;;;;;7.20;4.93;;;;;;;26.74;50.50;96674.59;5054308;28;20231;-78
2023/08/28 07:43:40;;;;;;;5.87;3.77;;;;;;;26.33;51.11;96678.53;5090230;28;20185;-77
2023/08/28 07:46:07;;;;;;;6.13;4.40;;;;;;;26.62;50.12;96665.38;5089170;28;20303;-77
2023/08/28 07:48:35;;;;;;;5.07;3.87;;;;;;;27.06;49.31;96676.16;5089116;28;20214;-76
2023/08/28 07:51:03;;;;;;;4.83;3.77;;;;;;;27.32;48.34;96676.53;5054359;28;20211;-78
2023/08/28 07:53:31;;;;;;;8.40;4.83;;;;;;;27.55;46.86;96668.50;5089549;28;20242;-84
2023/08/28 07:55:59;;;;;;;11.07;5.23;;;;;;;27.15;47.70;96665.25;5071343;28;20585;-77
2023/08/28 07:58:27;;;;;;;7.13;3.93;;;;;;;26.67;49.33;96670.94;5070270;28;20213;-76
2023/08/28 08:00:56;;;;;;;8.43;4.10;;;;;;;26.49;48.44;96650.03;5089214;28;20656;-77
2023/08/28 08:03:23;;;;;;;5.90;4.47;;;;;;;26.74;49.08;96653.34;5088125;28;20238;-76
2023/08/28 08:05:52;;;;;;;8.23;4.60;;;;;;;27.32;48.22;96682.69;5088555;28;20200;-79
2023/08/28 08:08:19;;;;;;;9.00;4.20;;;;;;;27.43;47.20;96648.69;5055828;28;20216;-80
2023/08/28 08:10:47;;;;;;;7.40;3.67;;;;;;;27.74;46.80;96666.09;5055708;28;20676;-79
2023/08/28 08:13:17;;;;;;;5.47;3.47;;;;;;;27.70;45.87;96672.78;5071386;28;20189;-77
2023/08/28 08:15:45;;;;;;;6.40;4.07;;;;;;;27.84;46.76;96674.59;5071627;28;20206;-78
2023/08/28 08:18:12;;;;;;;7.63;4.30;;;;;;;27.70;47.39;96661.34;5071946;28;20267;-78
2023/08/28 08:20:42;;;;;;;6.07;3.90;;;;;;;27.74;46.80;96636.00;5055950;28;20189;-82
2023/08/28 08:23:09;;;;;;;8.57;5.03;;;;;;;28.06;46.80;96651.56;5071034;28;20697;-79
2023/08/28 08:25:38;;;;;;;7.77;4.37;;;;;;;28.29;43.95;96664.72;5071029;28;20193;-76
2023/08/28 08:28:05;;;;;;;6.10;4.30;;;;;;;28.48;44.76;96661.44;5088470;28;20829;-79
2023/08/28 08:30:33;;;;;;;9.40;5.80;;;;;;;28.65;43.96;96644.19;5089032;28;20649;-76
2023/08/28 08:33:00;;;;;;;5.83;4.17;;;;;;;28.47;42.81;96662.44;5069177;28;20254;-80
2023/08/28 08:35:28;;;;;;;3.77;3.37;;;;;;;28.42;42.67;96640.88;5089216;28;20269;-80
2023/08/28 08:38:01;;;;;;;7.47;4.87;;;;;;;28.16;43.26;96628.94;5088983;28;20212;-81
2023/08/28 08:40:29;;;;;;;6.10;3.40;;;;;;;28.16;39.93;96633.44;5088780;28;21569;-76
2023/08/28 08:42:56;;;;;;;5.97;4.00;;;;;;;27.83;40.71;96600.25;5089537;28;20290;-79
2023/08/28 08:45:28;;;;;;;10.20;6.00;;;;;;;28.40;41.96;96649.03;5071471;28;20212;-77
2023/08/28 08:47:59;;;;;;;8.43;4.90;;;;;;;28.82;39.90;96627.75;5072030;28;20204;-83
2023/08/28 08:50:28;;;;;;;6.60;4.47;;;;;;;29.17;36.24;96614.47;5063917;28;20584;-76
2023/08/28 08:53:02;;;;;;;6.13;4.63;;;;;;;29.10;36.01;96634.91;5069098;28;20192;-77
2023/08/28 08:55:39;;;;;;;5.37;3.90;;;;;;;29.20;37.59;96633.59;5069471;28;20202;-77
2023/08/28 08:58:11;;;;;;;10.60;5.37;;;;;;;29.31;35.44;96632.19;5088158;28;20234;-78
2023/08/28 09:01:23;;;;;;;5.57;3.93;;;;;;;28.92;36.34;96627.41;5046447;28;20239;-81
2023/08/28 09:03:51;;;;;;;5.47;3.90;;;;;;;29.07;37.28;96629.97;5052951;28;20250;-77
2023/08/28 09:06:19;;;;;;;6.13;3.63;;;;;;;29.37;36.57;96628.75;5069053;28;20206;-76
2023/08/28 09:08:47;;;;;;;4.37;3.57;;;;;;;29.23;36.12;96625.19;5070138;28;20193;-84
2023/08/28 09:11:14;;;;;;;8.50;4.90;;;;;;;28.92;36.90;96606.91;5070994;28;20203;-80
2023/08/28 09:13:42;;;;;;;9.30;3.93;;;;;;;28.39;38.74;96602.13;5089121;28;20227;-77
2023/08/28 09:16:11;;;;;;;5.60;3.87;;;;;;;28.43;39.30;96595.38;5068463;28;20543;-79
2023/08/28 09:18:38;;;;;;;9.33;4.70;;;;;;;29.06;37.75;96620.34;5068285;28;20665;-79
2023/08/28 09:21:08;;;;;;;8.70;3.83;;;;;;;29.43;38.41;96615.44;5069745;28;20185;-77
2023/08/28 09:23:47;;;;;;;9.27;3.50;;;;;;;29.75;38.00;96600.63;5068653;28;20185;-76
2023/08/28 09:26:21;;;;;;;10.37;4.30;;;;;;;29.92;36.64;96617.97;5087052;28;20224;-78
2023/08/28 09:29:03;;;;;;;4.53;3.47;;;;;;;29.72;36.62;96611.66;5036418;28;20197;-79
2023/08/28 09:31:34;;;;;;;5.03;3.90;;;;;;;29.94;36.85;96621.25;5086859;28;20191;-77
2023/08/28 09:34:03;;;;;;;6.77;3.70;;;;;;;29.87;36.92;96564.31;5068320;28;20271;-75
2023/08/28 09:36:37;;;;;;;6.37;3.33;;;;;;;30.17;35.72;96619.03;5078535;28;20865;-81
2023/08/28 09:39:12;;;;;;;8.37;3.97;;;;;;;29.83;36.16;96611.13;5052979;28;20306;-78
2023/08/28 09:41:49;;;;;;;4.27;3.00;;;;;;;29.69;36.83;96593.41;5065663;28;20221;-81
2023/08/28 09:44:18;;;;;;;4.93;3.57;;;;;;;29.81;35.92;96597.16;5067439;28;20196;-78
2023/08/28 09:46:48;;;;;;;5.00;3.50;;;;;;;29.98;36.72;96610.97;5066023;28;20217;-78
2023/08/28 09:49:16;;;;;;;4.37;3.27;;;;;;;29.57;36.59;96603.00;5049324;28;20193;-76
2023/08/28 09:51:49;;;;;;;4.93;3.23;;;;;;;29.82;35.67;96587.31;5067073;28;20208;-78
2023/08/28 09:54:16;;;;;;;5.47;3.37;;;;;;;30.30;35.58;96583.53;5067229;28;20193;-82
2023/08/28 09:56:44;;;;;;;3.40;2.70;;;;;;;30.27;33.08;96571.41;5065008;28;20231;-81
2023/08/28 09:59:15;;;;;;;5.87;3.50;;;;;;;30.56;35.13;96588.94;5050015;28;20235;-82
2023/08/28 10:01:44;;;;;;;4.90;3.10;;;;;;;30.26;34.30;96563.56;5069633;28;20691;-83
2023/08/28 10:04:18;;;;;;;8.10;3.90;;;;;;;30.31;34.08;96572.66;5068781;28;20247;-83
2023/08/28 10:06:50;;;;;;;7.00;3.70;;;;;;;30.78;33.44;96581.50;5066262;28;20197;-77
2023/08/28 10:09:21;;;;;;;5.23;3.83;;;;;;;30.43;34.49;96581.72;5066037;28;20266;-76
2023/08/28 10:11:50;;;;;;;4.27;3.67;;;;;;;29.98;35.75;96549.56;5067491;28;20193;-80
2023/08/28 10:14:20;;;;;;;5.90;3.70;;;;;;;30.19;35.11;96558.19;5068877;28;20197;-77
2023/08/28 10:16:54;;;;;;;4.87;3.43;;;;;;;30.54;31.71;96566.94;5068060;28;20247;-80
2023/08/28 10:19:30;;;;;;;4.17;2.80;;;;;;;30.75;31.80;96568.56;5069519;28;20316;-79
2023/08/28 10:22:01;;;;;;;5.23;3.03;;;;;;;30.67;33.85;96548.19;5067115;28;20189;-79
2023/08/28 10:24:30;;;;;;;5.27;3.57;;;;;;;30.80;31.97;96563.41;5066809;28;20758;-77
2023/08/28 10:26:58;;;;;;;4.13;3.10;;;;;;;30.93;32.64;96572.28;5051782;28;20239;-78
2023/08/28 10:29:26;;;;;;;6.27;3.07;;;;;;;31.26;32.81;96561.50;5071546;28;20204;-78
2023/08/28 10:31:56;;;;;;;4.70;3.43;;;;;;;31.41;32.75;96559.41;5072789;28;20185;-79
2023/08/28 10:34:25;;;;;;;6.43;3.42;;;;;;;31.00;33.48;96550.84;5071552;28;20197;-76
2023/08/28 10:36:58;;;;;;;4.93;3.35;;;;;;;31.30;33.44;96552.00;5069004;28;20197;-79
2023/08/28 10:39:41;;;;;;;4.87;3.43;;;;;;;31.40;32.36;96563.13;5056904;28;20661;-77
2023/08/28 10:42:11;;;;;;;5.17;3.00;;;;;;;31.05;32.72;96553.72;5090847;28;20277;-79
2023/08/28 10:44:39;;;;;;;3.43;3.00;;;;;;;31.24;32.97;96553.66;5092117;28;20246;-78
2023/08/28 10:47:07;;;;;;;4.33;3.03;;;;;;;31.33;32.64;96543.53;5072086;28;20664;-76
2023/08/28 10:49:35;;;;;;;4.63;3.00;;;;;;;30.96;31.73;96537.06;5071718;28;20293;-76
2023/08/28 10:52:06;;;;;;;4.50;3.05;;;;;;;31.00;31.52;96535.63;5089708;28;20199;-76
2023/08/28 10:54:38;;;;;;;11.47;4.43;;;;;;;30.94;32.18;96488.31;5039842;28;20188;-77
2023/08/28 10:57:10;;;;;;;5.60;2.75;;;;;;;31.19;32.05;96541.94;5071618;28;20209;-78
2023/08/28 10:59:43;;;;;;;3.70;2.85;;;;;;;30.91;33.97;96539.56;5089959;28;20220;-77
2023/08/28 11:02:12;;;;;;;3.20;2.67;;;;;;;30.93;33.22;96542.84;5073170;28;20188;-75
2023/08/28 11:04:41;;;;;;;7.17;3.10;;;;;;;31.07;33.36;96541.78;5071960;28;20192;-76
2023/08/28 11:07:21;;;;;;;6.13;3.33;;;;;;;31.31;31.99;96542.94;5071935;28;20193;-82
2023/08/28 11:09:49;;;;;;;5.53;3.10;;;;;;;31.50;32.35;96525.19;5072265;28;20251;-75
2023/08/28 11:12:20;;;;;;;3.03;2.72;;;;;;;31.54;32.35;96531.75;5071451;28;20192;-78
2023/08/28 11:14:51;;;;;;;6.32;3.38;;;;;;;31.14;33.09;96547.13;5090169;28;20189;-77
2023/08/28 11:17:21;;;;;;;5.35;2.80;;;;;;;31.08;32.83;96529.22;5054403;28;20683;-78
2023/08/28 11:20:01;;;;;;;3.78;2.92;;;;;;;31.40;32.14;96514.94;5090274;28;20189;-76
2023/08/28 11:22:36;;;;;;;4.13;2.70;;;;;;;31.27;32.86;96509.59;5086840;28;20215;-76
2023/08/28 11:25:12;;;;;;;4.82;2.78;;;;;;;31.18;32.20;96516.25;5072010;28;20200;-77
2023/08/28 11:27:48;;;;;;;6.13;2.60;;;;;;;31.01;32.90;96505.16;5055616;28;20735;-76
2023/08/28 11:30:21;;;;;;;4.50;2.85;;;;;;;31.32;32.36;96491.88;5088017;28;20284;-78
2023/08/28 11:32:51;;;;;;;3.50;3.20;;;;;;;31.68;31.89;96504.69;5090116;28;20295;-78
2023/08/28 11:35:20;;;;;;;3.33;2.97;;;;;;;31.39;31.58;96502.56;5070412;28;20680;-78
2023/08/28 11:37:53;;;;;;;3.28;2.80;;;;;;;31.31;32.45;96498.25;5088200;28;20185;-80
2023/08/28 11:40:24;;;;;;;4.55;2.70;;;;;;;31.40;30.82;96506.09;5088882;28;20235;-82
2023/08/28 11:43:06;;;;;;;4.32;2.80;;;;;;;31.25;31.70;96511.66;5090470;28;20189;-77